sensor_id;sensor_type;location;lat;lon;timestamp;P1;durP1;ratioP1;P2;durP2;ratioP2
15012;SDS011;7603;49.432;11.418;2022-10-23T00:01:34;20.10;;;15.25;;
15012;SDS011;7603;49.432;11.418;2022-10-23T00:04:06;15.77;;;12.85;;
15012;SDS011;7603;49.432;11.418;2022-10-23T00:06:35;27.05;;;15.13;;
15012;SDS011;7603;49.432;11.418;2022-10-23T00:09:02;25.98;;;14.18;;
15012;SDS011;7603;49.432;11.418;2022-10-23T00:11:29;22.15;;;13.90;;
15012;SDS011;7603;49.432;11.418;2022-10-23T00:13:57;18.23;;;12.45;;
15012;SDS011;7603;49.432;11.418;2022-10-23T00:16:24;15.55;;;13.80;;
15012;SDS011;7603;49.432;11.418;2022-10-23T00:18:51;15.70;;;13.88;;
15012;SDS011;7603;49.432;11.418;2022-10-23T00:21:17;19.63;;;14.65;;
15012;SDS011;7603;49.432;11.418;2022-10-23T00:23:43;26.83;;;13.23;;
15012;SDS011;7603;49.432;11.418;2022-10-23T00:26:10;22.95;;;14.57;;
15012;SDS011;7603;49.432;11.418;2022-10-23T00:28:40;24.25;;;16.85;;
15012;SDS011;7603;49.432;11.418;2022-10-23T00:31:09;17.08;;;15.15;;
15012;SDS011;7603;49.432;11.418;2022-10-23T00:33:36;23.33;;;16.60;;
15012;SDS011;7603;49.432;11.418;2022-10-23T00:36:03;16.88;;;11.93;;
15012;SDS011;7603;49.432;11.418;2022-10-23T00:38:30;21.85;;;11.65;;
15012;SDS011;7603;49.432;11.418;2022-10-23T00:40:56;19.73;;;14.13;;
15012;SDS011;7603;49.432;11.418;2022-10-23T00:43:23;12.88;;;11.30;;
15012;SDS011;7603;49.432;11.418;2022-10-23T00:45:50;17.80;;;12.48;;
15012;SDS011;7603;49.432;11.418;2022-10-23T00:48:16;20.23;;;14.75;;
15012;SDS011;7603;49.432;11.418;2022-10-23T00:50:43;16.95;;;12.77;;
15012;SDS011;7603;49.432;11.418;2022-10-23T00:53:10;16.00;;;11.90;;
15012;SDS011;7603;49.432;11.418;2022-10-23T00:55:37;16.98;;;11.73;;
15012;SDS011;7603;49.432;11.418;2022-10-23T00:58:05;23.17;;;13.90;;
15012;SDS011;7603;49.432;11.418;2022-10-23T01:00:48;14.48;;;12.48;;
15012;SDS011;7603;49.432;11.418;2022-10-23T01:03:17;23.65;;;16.17;;
15012;SDS011;7603;49.432;11.418;2022-10-23T01:11:14;21.20;;;13.52;;
15012;SDS011;7603;49.432;11.418;2022-10-23T01:13:49;22.88;;;12.13;;
15012;SDS011;7603;49.432;11.418;2022-10-23T01:16:29;41.28;;;26.08;;
15012;SDS011;7603;49.432;11.418;2022-10-23T01:24:35;17.10;;;12.13;;
15012;SDS011;7603;49.432;11.418;2022-10-23T01:29:58;21.67;;;13.68;;
15012;SDS011;7603;49.432;11.418;2022-10-23T01:35:30;15.57;;;12.25;;
15012;SDS011;7603;49.432;11.418;2022-10-23T01:40:49;14.07;;;11.10;;
15012;SDS011;7603;49.432;11.418;2022-10-23T01:43:41;23.95;;;13.52;;
15012;SDS011;7603;49.432;11.418;2022-10-23T01:46:28;18.10;;;13.50;;
15012;SDS011;7603;49.432;11.418;2022-10-23T01:48:55;21.05;;;13.07;;
15012;SDS011;7603;49.432;11.418;2022-10-23T01:51:24;20.67;;;11.45;;
15012;SDS011;7603;49.432;11.418;2022-10-23T01:53:55;23.40;;;14.00;;
15012;SDS011;7603;49.432;11.418;2022-10-23T01:56:31;12.48;;;11.30;;
15012;SDS011;7603;49.432;11.418;2022-10-23T01:59:00;20.20;;;12.98;;
15012;SDS011;7603;49.432;11.418;2022-10-23T02:01:29;18.77;;;12.35;;
15012;SDS011;7603;49.432;11.418;2022-10-23T02:03:57;16.60;;;11.27;;
15012;SDS011;7603;49.432;11.418;2022-10-23T02:06:25;16.42;;;12.65;;
15012;SDS011;7603;49.432;11.418;2022-10-23T02:08:50;15.82;;;11.82;;
15012;SDS011;7603;49.432;11.418;2022-10-23T02:11:17;18.52;;;9.52;;
15012;SDS011;7603;49.432;11.418;2022-10-23T02:16:49;11.93;;;10.15;;
15012;SDS011;7603;49.432;11.418;2022-10-23T02:24:41;47.40;;;19.35;;
15012;SDS011;7603;49.432;11.418;2022-10-23T02:27:21;15.75;;;9.98;;
15012;SDS011;7603;49.432;11.418;2022-10-23T02:29:52;12.30;;;11.15;;
15012;SDS011;7603;49.432;11.418;2022-10-23T02:32:21;12.85;;;8.10;;
15012;SDS011;7603;49.432;11.418;2022-10-23T02:34:50;12.98;;;9.15;;
15012;SDS011;7603;49.432;11.418;2022-10-23T02:37:16;13.00;;;9.27;;
15012;SDS011;7603;49.432;11.418;2022-10-23T02:39:42;14.07;;;10.60;;
15012;SDS011;7603;49.432;11.418;2022-10-23T02:42:19;13.90;;;9.77;;
15012;SDS011;7603;49.432;11.418;2022-10-23T02:50:38;11.57;;;8.65;;
15012;SDS011;7603;49.432;11.418;2022-10-23T02:55:59;8.93;;;7.60;;
15012;SDS011;7603;49.432;11.418;2022-10-23T02:58:47;10.55;;;9.02;;
15012;SDS011;7603;49.432;11.418;2022-10-23T03:01:34;11.15;;;8.93;;
15012;SDS011;7603;49.432;11.418;2022-10-23T03:04:22;11.70;;;8.93;;
15012;SDS011;7603;49.432;11.418;2022-10-23T03:06:50;8.88;;;8.02;;
15012;SDS011;7603;49.432;11.418;2022-10-23T03:09:16;16.58;;;9.93;;
15012;SDS011;7603;49.432;11.418;2022-10-23T03:11:42;16.75;;;9.00;;
15012;SDS011;7603;49.432;11.418;2022-10-23T03:14:08;10.95;;;9.55;;
15012;SDS011;7603;49.432;11.418;2022-10-23T03:16:35;13.02;;;9.88;;
15012;SDS011;7603;49.432;11.418;2022-10-23T03:19:01;12.13;;;9.90;;
15012;SDS011;7603;49.432;11.418;2022-10-23T03:21:26;10.52;;;9.30;;
15012;SDS011;7603;49.432;11.418;2022-10-23T03:23:52;16.23;;;10.75;;
15012;SDS011;7603;49.432;11.418;2022-10-23T03:26:17;13.93;;;11.10;;
15012;SDS011;7603;49.432;11.418;2022-10-23T03:28:43;13.82;;;11.35;;
15012;SDS011;7603;49.432;11.418;2022-10-23T03:31:09;10.93;;;9.32;;
15012;SDS011;7603;49.432;11.418;2022-10-23T03:33:34;11.73;;;9.55;;
15012;SDS011;7603;49.432;11.418;2022-10-23T03:36:00;35.15;;;19.80;;
15012;SDS011;7603;49.432;11.418;2022-10-23T03:38:25;37.45;;;19.45;;
15012;SDS011;7603;49.432;11.418;2022-10-23T03:40:51;29.23;;;15.57;;
15012;SDS011;7603;49.432;11.418;2022-10-23T03:43:16;16.38;;;13.85;;
15012;SDS011;7603;49.432;11.418;2022-10-23T03:45:42;12.02;;;10.90;;
15012;SDS011;7603;49.432;11.418;2022-10-23T03:48:08;9.35;;;8.60;;
15012;SDS011;7603;49.432;11.418;2022-10-23T03:50:34;9.43;;;8.38;;
15012;SDS011;7603;49.432;11.418;2022-10-23T03:53:00;8.65;;;7.53;;
15012;SDS011;7603;49.432;11.418;2022-10-23T03:55:26;10.77;;;8.02;;
15012;SDS011;7603;49.432;11.418;2022-10-23T03:57:54;8.27;;;7.28;;
15012;SDS011;7603;49.432;11.418;2022-10-23T04:00:20;14.15;;;11.18;;
15012;SDS011;7603;49.432;11.418;2022-10-23T04:02:46;6.85;;;6.28;;
15012;SDS011;7603;49.432;11.418;2022-10-23T04:05:12;7.15;;;6.63;;
15012;SDS011;7603;49.432;11.418;2022-10-23T04:07:38;8.00;;;6.53;;
15012;SDS011;7603;49.432;11.418;2022-10-23T04:10:03;9.38;;;6.70;;
15012;SDS011;7603;49.432;11.418;2022-10-23T04:12:30;8.45;;;6.13;;
15012;SDS011;7603;49.432;11.418;2022-10-23T04:14:55;6.60;;;6.10;;
15012;SDS011;7603;49.432;11.418;2022-10-23T04:17:21;6.93;;;6.32;;
15012;SDS011;7603;49.432;11.418;2022-10-23T04:19:46;7.20;;;6.50;;
15012;SDS011;7603;49.432;11.418;2022-10-23T04:22:12;6.10;;;5.70;;
15012;SDS011;7603;49.432;11.418;2022-10-23T04:24:38;12.27;;;7.10;;
15012;SDS011;7603;49.432;11.418;2022-10-23T04:27:09;6.07;;;5.65;;
15012;SDS011;7603;49.432;11.418;2022-10-23T04:29:34;6.93;;;6.28;;
15012;SDS011;7603;49.432;11.418;2022-10-23T04:32:00;7.03;;;6.43;;
15012;SDS011;7603;49.432;11.418;2022-10-23T04:34:25;7.25;;;6.25;;
15012;SDS011;7603;49.432;11.418;2022-10-23T04:36:51;6.32;;;5.93;;
15012;SDS011;7603;49.432;11.418;2022-10-23T04:39:17;8.45;;;6.78;;
15012;SDS011;7603;49.432;11.418;2022-10-23T04:41:42;6.43;;;5.97;;
15012;SDS011;7603;49.432;11.418;2022-10-23T04:44:08;6.93;;;6.07;;
15012;SDS011;7603;49.432;11.418;2022-10-23T04:46:34;12.52;;;11.45;;
15012;SDS011;7603;49.432;11.418;2022-10-23T04:48:59;7.20;;;6.70;;
15012;SDS011;7603;49.432;11.418;2022-10-23T04:51:25;11.82;;;7.18;;
15012;SDS011;7603;49.432;11.418;2022-10-23T04:53:51;8.98;;;8.10;;
15012;SDS011;7603;49.432;11.418;2022-10-23T04:56:16;9.80;;;8.90;;
15012;SDS011;7603;49.432;11.418;2022-10-23T04:58:42;9.40;;;8.52;;
15012;SDS011;7603;49.432;11.418;2022-10-23T05:01:08;8.85;;;7.55;;
15012;SDS011;7603;49.432;11.418;2022-10-23T05:03:34;8.60;;;7.82;;
15012;SDS011;7603;49.432;11.418;2022-10-23T05:06:01;11.13;;;10.15;;
15012;SDS011;7603;49.432;11.418;2022-10-23T05:08:28;12.43;;;11.15;;
15012;SDS011;7603;49.432;11.418;2022-10-23T05:10:54;8.75;;;8.15;;
15012;SDS011;7603;49.432;11.418;2022-10-23T05:13:19;8.27;;;7.57;;
15012;SDS011;7603;49.432;11.418;2022-10-23T05:15:46;7.07;;;6.57;;
15012;SDS011;7603;49.432;11.418;2022-10-23T05:18:35;9.32;;;7.40;;
15012;SDS011;7603;49.432;11.418;2022-10-23T05:21:13;8.77;;;7.90;;
15012;SDS011;7603;49.432;11.418;2022-10-23T05:23:46;8.30;;;7.55;;
15012;SDS011;7603;49.432;11.418;2022-10-23T05:26:11;6.78;;;6.28;;
15012;SDS011;7603;49.432;11.418;2022-10-23T05:28:37;7.15;;;6.65;;
15012;SDS011;7603;49.432;11.418;2022-10-23T05:31:03;8.93;;;8.23;;
15012;SDS011;7603;49.432;11.418;2022-10-23T05:33:30;7.90;;;7.13;;
15012;SDS011;7603;49.432;11.418;2022-10-23T05:35:56;5.95;;;5.55;;
15012;SDS011;7603;49.432;11.418;2022-10-23T05:38:23;7.60;;;6.90;;
15012;SDS011;7603;49.432;11.418;2022-10-23T05:40:50;12.93;;;11.70;;
15012;SDS011;7603;49.432;11.418;2022-10-23T05:43:17;7.50;;;6.90;;
15012;SDS011;7603;49.432;11.418;2022-10-23T05:45:42;7.72;;;7.10;;
15012;SDS011;7603;49.432;11.418;2022-10-23T05:48:08;8.93;;;8.07;;
15012;SDS011;7603;49.432;11.418;2022-10-23T05:50:36;9.20;;;7.90;;
15012;SDS011;7603;49.432;11.418;2022-10-23T05:53:02;8.02;;;7.40;;
15012;SDS011;7603;49.432;11.418;2022-10-23T05:55:28;7.28;;;6.80;;
15012;SDS011;7603;49.432;11.418;2022-10-23T05:57:53;8.38;;;7.68;;
15012;SDS011;7603;49.432;11.418;2022-10-23T06:00:19;6.90;;;6.35;;
15012;SDS011;7603;49.432;11.418;2022-10-23T06:02:45;8.32;;;7.50;;
15012;SDS011;7603;49.432;11.418;2022-10-23T06:05:10;7.65;;;7.15;;
15012;SDS011;7603;49.432;11.418;2022-10-23T06:07:36;8.02;;;7.43;;
15012;SDS011;7603;49.432;11.418;2022-10-23T06:10:02;8.60;;;7.28;;
15012;SDS011;7603;49.432;11.418;2022-10-23T06:12:29;7.45;;;6.90;;
15012;SDS011;7603;49.432;11.418;2022-10-23T06:14:56;8.07;;;7.38;;
15012;SDS011;7603;49.432;11.418;2022-10-23T06:17:22;9.90;;;9.05;;
15012;SDS011;7603;49.432;11.418;2022-10-23T06:19:48;9.75;;;8.70;;
15012;SDS011;7603;49.432;11.418;2022-10-23T06:22:13;9.35;;;7.35;;
15012;SDS011;7603;49.432;11.418;2022-10-23T06:24:39;7.68;;;7.07;;
15012;SDS011;7603;49.432;11.418;2022-10-23T06:27:05;8.93;;;8.20;;
15012;SDS011;7603;49.432;11.418;2022-10-23T06:29:30;8.07;;;7.47;;
15012;SDS011;7603;49.432;11.418;2022-10-23T06:31:56;6.85;;;6.35;;
15012;SDS011;7603;49.432;11.418;2022-10-23T06:34:22;7.18;;;6.68;;
15012;SDS011;7603;49.432;11.418;2022-10-23T06:36:48;7.93;;;6.97;;
15012;SDS011;7603;49.432;11.418;2022-10-23T06:39:13;9.13;;;8.20;;
15012;SDS011;7603;49.432;11.418;2022-10-23T06:41:39;8.57;;;7.78;;
15012;SDS011;7603;49.432;11.418;2022-10-23T06:44:06;6.70;;;6.20;;
15012;SDS011;7603;49.432;11.418;2022-10-23T06:46:34;8.32;;;6.88;;
15012;SDS011;7603;49.432;11.418;2022-10-23T06:49:00;6.45;;;5.82;;
15012;SDS011;7603;49.432;11.418;2022-10-23T06:51:26;5.90;;;5.50;;
15012;SDS011;7603;49.432;11.418;2022-10-23T06:53:54;5.90;;;5.50;;
15012;SDS011;7603;49.432;11.418;2022-10-23T06:56:20;5.18;;;4.82;;
15012;SDS011;7603;49.432;11.418;2022-10-23T06:58:47;5.55;;;5.15;;
15012;SDS011;7603;49.432;11.418;2022-10-23T07:01:12;5.40;;;5.07;;
15012;SDS011;7603;49.432;11.418;2022-10-23T07:03:41;4.45;;;4.15;;
15012;SDS011;7603;49.432;11.418;2022-10-23T07:06:08;5.85;;;5.35;;
15012;SDS011;7603;49.432;11.418;2022-10-23T07:08:34;4.28;;;3.97;;
15012;SDS011;7603;49.432;11.418;2022-10-23T07:11:02;8.65;;;4.50;;
15012;SDS011;7603;49.432;11.418;2022-10-23T07:13:32;4.22;;;3.83;;
15012;SDS011;7603;49.432;11.418;2022-10-23T07:16:07;6.10;;;5.60;;
15012;SDS011;7603;49.432;11.418;2022-10-23T07:18:37;7.47;;;6.97;;
15012;SDS011;7603;49.432;11.418;2022-10-23T07:21:03;4.30;;;3.80;;
15012;SDS011;7603;49.432;11.418;2022-10-23T07:23:29;4.88;;;3.63;;
15012;SDS011;7603;49.432;11.418;2022-10-23T07:25:54;3.30;;;3.10;;
15012;SDS011;7603;49.432;11.418;2022-10-23T07:28:20;4.00;;;3.63;;
15012;SDS011;7603;49.432;11.418;2022-10-23T07:30:54;3.47;;;3.28;;
15012;SDS011;7603;49.432;11.418;2022-10-23T07:33:21;5.47;;;3.45;;
15012;SDS011;7603;49.432;11.418;2022-10-23T07:35:47;5.35;;;4.55;;
15012;SDS011;7603;49.432;11.418;2022-10-23T07:38:14;4.78;;;4.32;;
15012;SDS011;7603;49.432;11.418;2022-10-23T07:40:39;4.85;;;4.55;;
15012;SDS011;7603;49.432;11.418;2022-10-23T07:43:05;4.80;;;3.50;;
15012;SDS011;7603;49.432;11.418;2022-10-23T07:45:33;3.67;;;3.38;;
15012;SDS011;7603;49.432;11.418;2022-10-23T07:47:59;4.25;;;3.95;;
15012;SDS011;7603;49.432;11.418;2022-10-23T07:50:24;5.28;;;4.13;;
15012;SDS011;7603;49.432;11.418;2022-10-23T07:52:50;3.85;;;3.65;;
15012;SDS011;7603;49.432;11.418;2022-10-23T07:55:16;4.30;;;4.00;;
15012;SDS011;7603;49.432;11.418;2022-10-23T07:57:42;12.15;;;10.85;;
15012;SDS011;7603;49.432;11.418;2022-10-23T08:00:09;4.15;;;3.85;;
15012;SDS011;7603;49.432;11.418;2022-10-23T08:02:36;4.43;;;4.13;;
15012;SDS011;7603;49.432;11.418;2022-10-23T08:05:02;4.20;;;3.90;;
15012;SDS011;7603;49.432;11.418;2022-10-23T08:07:28;4.10;;;3.67;;
15012;SDS011;7603;49.432;11.418;2022-10-23T08:09:54;4.78;;;4.30;;
15012;SDS011;7603;49.432;11.418;2022-10-23T08:12:19;3.75;;;3.38;;
15012;SDS011;7603;49.432;11.418;2022-10-23T08:14:45;3.97;;;3.78;;
15012;SDS011;7603;49.432;11.418;2022-10-23T08:17:11;3.80;;;3.60;;
15012;SDS011;7603;49.432;11.418;2022-10-23T08:19:37;4.25;;;3.30;;
15012;SDS011;7603;49.432;11.418;2022-10-23T08:22:02;3.55;;;3.30;;
15012;SDS011;7603;49.432;11.418;2022-10-23T08:24:28;8.25;;;5.72;;
15012;SDS011;7603;49.432;11.418;2022-10-23T08:26:54;6.47;;;3.58;;
15012;SDS011;7603;49.432;11.418;2022-10-23T08:29:20;5.57;;;4.07;;
15012;SDS011;7603;49.432;11.418;2022-10-23T08:31:46;5.05;;;3.03;;
15012;SDS011;7603;49.432;11.418;2022-10-23T08:34:12;2.72;;;2.63;;
15012;SDS011;7603;49.432;11.418;2022-10-23T08:36:38;2.95;;;2.72;;
15012;SDS011;7603;49.432;11.418;2022-10-23T08:39:04;2.90;;;2.75;;
15012;SDS011;7603;49.432;11.418;2022-10-23T08:41:38;2.30;;;2.20;;
15012;SDS011;7603;49.432;11.418;2022-10-23T08:46:45;3.17;;;2.97;;
15012;SDS011;7603;49.432;11.418;2022-10-23T08:49:19;6.28;;;2.63;;
15012;SDS011;7603;49.432;11.418;2022-10-23T08:52:06;2.55;;;2.35;;
15012;SDS011;7603;49.432;11.418;2022-10-23T08:54:59;2.47;;;2.38;;
15012;SDS011;7603;49.432;11.418;2022-10-23T08:57:34;2.15;;;2.05;;
15012;SDS011;7603;49.432;11.418;2022-10-23T09:00:07;2.10;;;2.00;;
15012;SDS011;7603;49.432;11.418;2022-10-23T09:02:39;1.88;;;1.77;;
15012;SDS011;7603;49.432;11.418;2022-10-23T09:05:18;2.05;;;1.90;;
15012;SDS011;7603;49.432;11.418;2022-10-23T09:10:47;1.70;;;1.58;;
15012;SDS011;7603;49.432;11.418;2022-10-23T09:18:58;4.82;;;1.92;;
15012;SDS011;7603;49.432;11.418;2022-10-23T09:21:24;3.17;;;2.97;;
15012;SDS011;7603;49.432;11.418;2022-10-23T09:23:52;1.40;;;1.30;;
15012;SDS011;7603;49.432;11.418;2022-10-23T09:26:17;2.03;;;1.45;;
15012;SDS011;7603;49.432;11.418;2022-10-23T09:28:47;2.10;;;1.50;;
15012;SDS011;7603;49.432;11.418;2022-10-23T09:31:19;1.88;;;1.10;;
15012;SDS011;7603;49.432;11.418;2022-10-23T09:33:58;3.63;;;3.42;;
15012;SDS011;7603;49.432;11.418;2022-10-23T09:36:26;2.90;;;2.00;;
15012;SDS011;7603;49.432;11.418;2022-10-23T09:38:54;1.40;;;1.30;;
15012;SDS011;7603;49.432;11.418;2022-10-23T09:41:37;1.50;;;1.40;;
15012;SDS011;7603;49.432;11.418;2022-10-23T09:49:33;2.45;;;1.52;;
15012;SDS011;7603;49.432;11.418;2022-10-23T09:52:18;1.30;;;1.30;;
15012;SDS011;7603;49.432;11.418;2022-10-23T09:55:23;2.83;;;1.65;;
15012;SDS011;7603;49.432;11.418;2022-10-23T09:57:50;4.47;;;1.63;;
15012;SDS011;7603;49.432;11.418;2022-10-23T10:00:21;1.80;;;1.67;;
15012;SDS011;7603;49.432;11.418;2022-10-23T10:02:58;1.52;;;1.33;;
15012;SDS011;7603;49.432;11.418;2022-10-23T10:08:02;1.15;;;1.15;;
15012;SDS011;7603;49.432;11.418;2022-10-23T10:11:01;1.25;;;1.17;;
15012;SDS011;7603;49.432;11.418;2022-10-23T10:15:59;1.48;;;1.45;;
15012;SDS011;7603;49.432;11.418;2022-10-23T10:27:02;1.00;;;1.00;;
15012;SDS011;7603;49.432;11.418;2022-10-23T10:37:55;1.17;;;1.05;;
15012;SDS011;7603;49.432;11.418;2022-10-23T10:40:37;1.08;;;1.08;;
15012;SDS011;7603;49.432;11.418;2022-10-23T10:46:01;4.03;;;3.63;;
15012;SDS011;7603;49.432;11.418;2022-10-23T10:56:40;5.95;;;2.30;;
15012;SDS011;7603;49.432;11.418;2022-10-23T11:04:20;2.13;;;2.03;;
15012;SDS011;7603;49.432;11.418;2022-10-23T11:07:00;2.30;;;2.10;;
15012;SDS011;7603;49.432;11.418;2022-10-23T11:09:32;5.57;;;5.03;;
15012;SDS011;7603;49.432;11.418;2022-10-23T11:11:58;3.17;;;2.97;;
15012;SDS011;7603;49.432;11.418;2022-10-23T11:14:24;1.70;;;1.60;;
15012;SDS011;7603;49.432;11.418;2022-10-23T11:19:33;3.13;;;1.67;;
15012;SDS011;7603;49.432;11.418;2022-10-23T11:22:23;2.17;;;1.70;;
15012;SDS011;7603;49.432;11.418;2022-10-23T11:27:56;1.40;;;1.30;;
15012;SDS011;7603;49.432;11.418;2022-10-23T11:31:04;1.35;;;1.30;;
15012;SDS011;7603;49.432;11.418;2022-10-23T11:33:50;1.50;;;1.40;;
15012;SDS011;7603;49.432;11.418;2022-10-23T11:36:55;1.80;;;1.70;;
15012;SDS011;7603;49.432;11.418;2022-10-23T11:39:27;1.98;;;1.88;;
15012;SDS011;7603;49.432;11.418;2022-10-23T11:41:58;3.08;;;1.52;;
15012;SDS011;7603;49.432;11.418;2022-10-23T11:44:48;1.75;;;1.48;;
15012;SDS011;7603;49.432;11.418;2022-10-23T11:47:31;2.35;;;1.13;;
15012;SDS011;7603;49.432;11.418;2022-10-23T11:52:33;1.25;;;1.25;;
15012;SDS011;7603;49.432;11.418;2022-10-23T11:55:17;1.63;;;1.52;;
15012;SDS011;7603;49.432;11.418;2022-10-23T11:57:58;3.22;;;2.40;;
15012;SDS011;7603;49.432;11.418;2022-10-23T12:01:14;1.42;;;1.40;;
15012;SDS011;7603;49.432;11.418;2022-10-23T12:03:55;1.52;;;1.13;;
15012;SDS011;7603;49.432;11.418;2022-10-23T12:06:24;1.92;;;1.75;;
15012;SDS011;7603;49.432;11.418;2022-10-23T12:08:57;4.65;;;3.05;;
15012;SDS011;7603;49.432;11.418;2022-10-23T12:11:43;2.85;;;2.47;;
15012;SDS011;7603;49.432;11.418;2022-10-23T12:14:33;2.35;;;1.50;;
15012;SDS011;7603;49.432;11.418;2022-10-23T12:17:02;1.83;;;1.73;;
15012;SDS011;7603;49.432;11.418;2022-10-23T12:19:46;1.23;;;1.13;;
15012;SDS011;7603;49.432;11.418;2022-10-23T12:22:13;1.40;;;1.00;;
15012;SDS011;7603;49.432;11.418;2022-10-23T12:27:45;2.00;;;1.17;;
15012;SDS011;7603;49.432;11.418;2022-10-23T12:30:21;2.58;;;1.20;;
15012;SDS011;7603;49.432;11.418;2022-10-23T12:32:56;1.13;;;1.13;;
15012;SDS011;7603;49.432;11.418;2022-10-23T12:38:19;2.03;;;1.00;;
15012;SDS011;7603;49.432;11.418;2022-10-23T12:41:10;2.70;;;1.58;;
15012;SDS011;7603;49.432;11.418;2022-10-23T12:43:42;1.08;;;1.08;;
15012;SDS011;7603;49.432;11.418;2022-10-23T12:48:56;1.83;;;1.30;;
15012;SDS011;7603;49.432;11.418;2022-10-23T12:51:27;1.95;;;1.13;;
15012;SDS011;7603;49.432;11.418;2022-10-23T12:53:55;1.35;;;1.35;;
15012;SDS011;7603;49.432;11.418;2022-10-23T12:56:23;2.92;;;1.77;;
15012;SDS011;7603;49.432;11.418;2022-10-23T12:58:50;2.25;;;1.77;;
15012;SDS011;7603;49.432;11.418;2022-10-23T13:01:22;1.50;;;1.50;;
15012;SDS011;7603;49.432;11.418;2022-10-23T13:03:55;1.15;;;1.15;;
15012;SDS011;7603;49.432;11.418;2022-10-23T13:06:23;1.60;;;1.50;;
15012;SDS011;7603;49.432;11.418;2022-10-23T13:08:50;1.30;;;1.20;;
15012;SDS011;7603;49.432;11.418;2022-10-23T13:11:17;2.03;;;1.80;;
15012;SDS011;7603;49.432;11.418;2022-10-23T13:13:44;1.92;;;1.83;;
15012;SDS011;7603;49.432;11.418;2022-10-23T13:16:21;3.88;;;3.08;;
15012;SDS011;7603;49.432;11.418;2022-10-23T13:18:48;2.53;;;2.33;;
15012;SDS011;7603;49.432;11.418;2022-10-23T13:21:21;2.45;;;2.25;;
15012;SDS011;7603;49.432;11.418;2022-10-23T13:23:49;5.72;;;4.80;;
15012;SDS011;7603;49.432;11.418;2022-10-23T13:28:49;4.40;;;3.08;;
15012;SDS011;7603;49.432;11.418;2022-10-23T13:33:41;1.80;;;1.65;;
15012;SDS011;7603;49.432;11.418;2022-10-23T13:38:36;4.53;;;2.42;;
15012;SDS011;7603;49.432;11.418;2022-10-23T13:41:04;2.15;;;2.05;;
15012;SDS011;7603;49.432;11.418;2022-10-23T13:43:35;4.38;;;2.75;;
15012;SDS011;7603;49.432;11.418;2022-10-23T13:46:01;4.30;;;3.75;;
15012;SDS011;7603;49.432;11.418;2022-10-23T13:48:26;3.00;;;2.80;;
15012;SDS011;7603;49.432;11.418;2022-10-23T13:50:53;6.57;;;5.82;;
15012;SDS011;7603;49.432;11.418;2022-10-23T13:53:26;5.00;;;2.90;;
15012;SDS011;7603;49.432;11.418;2022-10-23T13:55:52;2.85;;;2.15;;
15012;SDS011;7603;49.432;11.418;2022-10-23T13:58:17;2.55;;;2.38;;
15012;SDS011;7603;49.432;11.418;2022-10-23T14:00:43;11.10;;;5.03;;
15012;SDS011;7603;49.432;11.418;2022-10-23T14:03:11;2.78;;;2.60;;
15012;SDS011;7603;49.432;11.418;2022-10-23T14:05:37;3.83;;;3.50;;
15012;SDS011;7603;49.432;11.418;2022-10-23T14:08:02;3.25;;;3.05;;
15012;SDS011;7603;49.432;11.418;2022-10-23T14:10:28;4.03;;;3.00;;
15012;SDS011;7603;49.432;11.418;2022-10-23T14:12:54;3.90;;;2.65;;
15012;SDS011;7603;49.432;11.418;2022-10-23T14:15:19;5.00;;;4.40;;
15012;SDS011;7603;49.432;11.418;2022-10-23T14:17:45;3.72;;;2.55;;
15012;SDS011;7603;49.432;11.418;2022-10-23T14:20:11;3.22;;;3.03;;
15012;SDS011;7603;49.432;11.418;2022-10-23T14:22:37;3.92;;;3.15;;
15012;SDS011;7603;49.432;11.418;2022-10-23T14:25:03;17.48;;;12.00;;
15012;SDS011;7603;49.432;11.418;2022-10-23T14:27:29;6.95;;;4.55;;
15012;SDS011;7603;49.432;11.418;2022-10-23T14:29:55;4.13;;;3.05;;
15012;SDS011;7603;49.432;11.418;2022-10-23T14:32:21;7.07;;;6.05;;
15012;SDS011;7603;49.432;11.418;2022-10-23T14:34:51;13.65;;;8.32;;
15012;SDS011;7603;49.432;11.418;2022-10-23T14:37:19;16.35;;;10.50;;
15012;SDS011;7603;49.432;11.418;2022-10-23T14:39:45;6.35;;;5.82;;
15012;SDS011;7603;49.432;11.418;2022-10-23T14:42:11;6.90;;;6.30;;
15012;SDS011;7603;49.432;11.418;2022-10-23T14:44:37;3.95;;;3.75;;
15012;SDS011;7603;49.432;11.418;2022-10-23T14:47:03;4.50;;;3.58;;
15012;SDS011;7603;49.432;11.418;2022-10-23T14:49:29;4.82;;;4.22;;
15012;SDS011;7603;49.432;11.418;2022-10-23T14:51:55;4.18;;;3.78;;
15012;SDS011;7603;49.432;11.418;2022-10-23T14:54:21;5.00;;;3.88;;
15012;SDS011;7603;49.432;11.418;2022-10-23T14:56:47;4.00;;;3.78;;
15012;SDS011;7603;49.432;11.418;2022-10-23T14:59:12;3.50;;;3.30;;
15012;SDS011;7603;49.432;11.418;2022-10-23T15:01:39;4.38;;;3.80;;
15012;SDS011;7603;49.432;11.418;2022-10-23T15:04:06;4.00;;;3.80;;
15012;SDS011;7603;49.432;11.418;2022-10-23T15:06:33;3.97;;;3.78;;
15012;SDS011;7603;49.432;11.418;2022-10-23T15:08:59;5.95;;;3.95;;
15012;SDS011;7603;49.432;11.418;2022-10-23T15:11:25;5.90;;;4.38;;
15012;SDS011;7603;49.432;11.418;2022-10-23T15:13:51;4.40;;;4.10;;
15012;SDS011;7603;49.432;11.418;2022-10-23T15:16:21;3.92;;;3.63;;
15012;SDS011;7603;49.432;11.418;2022-10-23T15:18:47;6.95;;;6.35;;
15012;SDS011;7603;49.432;11.418;2022-10-23T15:21:13;3.95;;;3.72;;
15012;SDS011;7603;49.432;11.418;2022-10-23T15:23:40;5.10;;;4.70;;
15012;SDS011;7603;49.432;11.418;2022-10-23T15:26:07;3.85;;;3.55;;
15012;SDS011;7603;49.432;11.418;2022-10-23T15:28:35;4.65;;;4.10;;
15012;SDS011;7603;49.432;11.418;2022-10-23T15:31:01;4.60;;;4.22;;
15012;SDS011;7603;49.432;11.418;2022-10-23T15:33:27;4.15;;;3.95;;
15012;SDS011;7603;49.432;11.418;2022-10-23T15:35:53;6.43;;;4.85;;
15012;SDS011;7603;49.432;11.418;2022-10-23T15:38:19;5.60;;;5.10;;
15012;SDS011;7603;49.432;11.418;2022-10-23T15:40:46;5.65;;;5.20;;
15012;SDS011;7603;49.432;11.418;2022-10-23T15:43:12;6.20;;;5.50;;
15012;SDS011;7603;49.432;11.418;2022-10-23T15:45:39;4.78;;;4.38;;
15012;SDS011;7603;49.432;11.418;2022-10-23T15:48:05;5.88;;;5.28;;
15012;SDS011;7603;49.432;11.418;2022-10-23T15:50:31;5.28;;;4.78;;
15012;SDS011;7603;49.432;11.418;2022-10-23T15:52:58;5.93;;;5.35;;
15012;SDS011;7603;49.432;11.418;2022-10-23T15:55:24;5.25;;;4.78;;
15012;SDS011;7603;49.432;11.418;2022-10-23T15:57:49;5.07;;;4.50;;
15012;SDS011;7603;49.432;11.418;2022-10-23T16:00:15;5.20;;;4.80;;
15012;SDS011;7603;49.432;11.418;2022-10-23T16:02:42;5.38;;;4.88;;
15012;SDS011;7603;49.432;11.418;2022-10-23T16:05:07;7.53;;;5.10;;
15012;SDS011;7603;49.432;11.418;2022-10-23T16:07:33;6.13;;;4.97;;
15012;SDS011;7603;49.432;11.418;2022-10-23T16:09:59;8.27;;;5.68;;
15012;SDS011;7603;49.432;11.418;2022-10-23T16:12:25;9.20;;;5.57;;
15012;SDS011;7603;49.432;11.418;2022-10-23T16:14:51;6.10;;;5.63;;
15012;SDS011;7603;49.432;11.418;2022-10-23T16:17:17;8.50;;;5.85;;
15012;SDS011;7603;49.432;11.418;2022-10-23T16:19:43;5.82;;;5.13;;
15012;SDS011;7603;49.432;11.418;2022-10-23T16:22:10;5.45;;;5.05;;
15012;SDS011;7603;49.432;11.418;2022-10-23T16:24:35;5.55;;;5.13;;
15012;SDS011;7603;49.432;11.418;2022-10-23T16:27:01;6.70;;;5.43;;
15012;SDS011;7603;49.432;11.418;2022-10-23T16:29:27;5.35;;;4.95;;
15012;SDS011;7603;49.432;11.418;2022-10-23T16:31:53;7.03;;;5.20;;
15012;SDS011;7603;49.432;11.418;2022-10-23T16:34:21;6.15;;;5.63;;
15012;SDS011;7603;49.432;11.418;2022-10-23T16:36:46;5.50;;;4.97;;
15012;SDS011;7603;49.432;11.418;2022-10-23T16:39:14;5.40;;;5.00;;
15012;SDS011;7603;49.432;11.418;2022-10-23T16:41:41;5.80;;;5.40;;
15012;SDS011;7603;49.432;11.418;2022-10-23T16:44:07;5.70;;;5.30;;
15012;SDS011;7603;49.432;11.418;2022-10-23T16:46:33;5.65;;;5.25;;
15012;SDS011;7603;49.432;11.418;2022-10-23T16:48:59;6.22;;;5.72;;
15012;SDS011;7603;49.432;11.418;2022-10-23T16:51:29;6.18;;;5.60;;